createdAt,value
2022-08-05T00:01:35.595Z,55.23
2022-08-05T00:04:15.862Z,55.99
2022-08-05T00:06:43.319Z,57.07
2022-08-05T00:09:12.697Z,57.32
2022-08-05T00:11:48.355Z,57.19
2022-08-05T00:14:17.381Z,56.97
2022-08-05T00:16:53.627Z,57.86
2022-08-05T00:19:24.722Z,57.68
2022-08-05T00:21:52.057Z,57.67
2022-08-05T00:24:24.594Z,57.86
2022-08-05T00:26:58.559Z,58.48
2022-08-05T00:29:27.580Z,59.28
2022-08-05T00:32:13.477Z,60.52
2022-08-05T00:35:04.539Z,62.39
2022-08-05T00:37:50.399Z,65.02
2022-08-05T00:40:17.908Z,64.61
2022-08-05T00:42:55.068Z,66.65
2022-08-05T00:45:28.136Z,68.96
2022-08-05T00:48:10.067Z,73.29
2022-08-05T00:50:38.050Z,75.36
2022-08-05T00:53:09.744Z,77.11
2022-08-05T00:55:52.011Z,78.97
2022-08-05T00:58:19.351Z,79.61
2022-08-05T01:00:47.011Z,80.43
2022-08-05T01:03:22.665Z,79.86
2022-08-05T01:05:54.582Z,79.88
2022-08-05T01:08:40.111Z,79.69
2022-08-05T01:11:33.296Z,79.99
2022-08-05T01:14:08.807Z,79.60
2022-08-05T01:16:36.011Z,79.47
2022-08-05T01:19:16.361Z,79.59
2022-08-05T01:21:51.501Z,77.37
2022-08-05T01:24:30.709Z,78.10
2022-08-05T01:27:17.547Z,78.20
2022-08-05T01:29:49.533Z,78.93
2022-08-05T01:32:21.040Z,79.77
2022-08-05T01:34:51.006Z,79.50
2022-08-05T01:37:44.633Z,78.05
2022-08-05T01:40:12.875Z,77.86
2022-08-05T01:42:40.231Z,76.97
2022-08-05T01:45:08.453Z,76.83
2022-08-05T01:47:39.517Z,77.39
2022-08-05T01:50:16.024Z,78.19
2022-08-05T01:52:49.753Z,78.44
2022-08-05T01:55:19.961Z,79.00
2022-08-05T01:58:10.630Z,79.11
2022-08-05T02:00:37.437Z,79.46
2022-08-05T02:03:24.621Z,79.45
2022-08-05T02:06:00.880Z,79.29
2022-08-05T02:08:29.639Z,79.82
2022-08-05T02:11:16.063Z,80.10
2022-08-05T02:13:56.302Z,80.81
2022-08-05T02:16:27.568Z,80.20
2022-08-05T02:19:07.027Z,80.83
2022-08-05T02:21:43.134Z,81.53
2022-08-05T02:24:17.998Z,80.92
2022-08-05T02:27:10.280Z,80.50
2022-08-05T02:29:58.401Z,80.54
2022-08-05T02:32:30.963Z,81.23
2022-08-05T02:35:13.854Z,81.68
2022-08-05T02:37:47.762Z,82.08
2022-08-05T02:40:21.569Z,82.15
2022-08-05T02:42:52.994Z,81.80
2022-08-05T02:45:24.243Z,82.07
2022-08-05T02:48:06.555Z,82.76
2022-08-05T02:50:44.000Z,83.02
2022-08-05T02:53:16.093Z,83.34
2022-08-05T02:55:54.628Z,84.18
2022-08-05T02:58:27.488Z,84.43
2022-08-05T03:00:56.808Z,83.95
2022-08-05T03:03:24.177Z,83.95
2022-08-05T03:06:55.042Z,84.06
2022-08-05T03:08:42.613Z,84.60
2022-08-05T03:11:55.786Z,85.07
2022-08-05T03:14:09.589Z,85.29
2022-08-05T03:16:40.940Z,84.95
2022-08-05T03:19:17.067Z,84.86
2022-08-05T03:21:55.168Z,84.37
2022-08-05T03:24:23.646Z,84.88
2022-08-05T03:26:57.955Z,84.96
2022-08-05T03:29:24.891Z,85.03
2022-08-05T03:32:12.044Z,85.37
2022-08-05T03:34:42.335Z,85.72
2022-08-05T03:37:18.259Z,86.60
2022-08-05T03:40:01.094Z,87.58
2022-08-05T03:42:32.093Z,88.11
2022-08-05T03:45:01.495Z,87.54
2022-08-05T03:47:30.479Z,88.07
2022-08-05T03:50:02.393Z,88.89
2022-08-05T03:52:38.561Z,89.16
2022-08-05T03:56:05.391Z,89.56
2022-08-05T03:58:11.475Z,89.98
2022-08-05T04:00:41.927Z,90.19
2022-08-05T04:03:26.568Z,90.40
2022-08-05T04:05:55.914Z,90.95
2022-08-05T04:08:30.194Z,91.03
2022-08-05T04:11:04.281Z,90.92
2022-08-05T04:13:51.188Z,91.11
2022-08-05T04:16:24.388Z,90.16
2022-08-05T04:18:53.993Z,89.83
2022-08-05T04:22:08.392Z,89.05
2022-08-05T04:24:18.678Z,87.09
2022-08-05T04:26:46.822Z,81.91
2022-08-05T04:29:14.283Z,78.98
2022-08-05T04:31:42.915Z,78.40
2022-08-05T04:34:31.729Z,75.92
2022-08-05T04:36:57.132Z,73.31
2022-08-05T04:39:24.206Z,71.07
2022-08-05T04:41:54.354Z,68.06
2022-08-05T04:44:29.705Z,66.30
2022-08-05T04:46:58.476Z,65.49
2022-08-05T04:49:38.377Z,63.53
2022-08-05T04:52:12.944Z,60.36
2022-08-05T04:54:39.817Z,58.12
2022-08-05T04:57:06.671Z,58.38
2022-08-05T04:59:38.599Z,58.82
2022-08-05T05:02:36.766Z,56.92
2022-08-05T05:05:02.155Z,54.80
2022-08-05T05:07:32.373Z,55.20
2022-08-05T05:10:02.168Z,56.81
2022-08-05T05:12:29.972Z,55.65
2022-08-05T05:14:56.801Z,55.22
2022-08-05T05:17:55.423Z,55.00
2022-08-05T05:20:12.426Z,55.69
2022-08-05T05:22:40.924Z,55.29
2022-08-05T05:25:17.023Z,57.70
2022-08-05T05:27:48.659Z,56.67
2022-08-05T05:30:29.533Z,58.98
2022-08-05T05:33:00.919Z,61.88
2022-08-05T05:35:39.596Z,64.15
2022-08-05T05:38:08.902Z,65.59
2022-08-05T05:40:36.700Z,64.09
2022-08-05T05:43:03.620Z,64.49
2022-08-05T05:45:30.526Z,65.17
2022-08-05T05:48:06.292Z,66.08
2022-08-05T05:50:43.912Z,65.67
2022-08-05T05:53:21.104Z,64.17
2022-08-05T05:55:51.941Z,62.44
2022-08-05T05:58:31.731Z,59.89
2022-08-05T06:01:12.971Z,57.00
2022-08-05T06:04:01.272Z,56.16
2022-08-05T06:06:31.214Z,56.30
2022-08-05T06:09:00.264Z,55.76
2022-08-05T06:11:28.967Z,56.62
2022-08-05T06:13:56.537Z,57.73
2022-08-05T06:16:30.073Z,58.77
2022-08-05T06:19:01.820Z,59.57
2022-08-05T06:21:35.999Z,60.48
2022-08-05T06:24:12.233Z,60.94
2022-08-05T06:26:51.406Z,60.87
2022-08-05T06:29:42.838Z,59.46
2022-08-05T06:32:21.321Z,59.46
2022-08-05T06:34:57.244Z,59.38
2022-08-05T06:37:56.461Z,59.34
2022-08-05T06:40:20.629Z,59.63
2022-08-05T06:42:52.287Z,59.68
2022-08-05T06:45:20.708Z,56.67
2022-08-05T06:48:37.246Z,55.96
2022-08-05T06:50:35.482Z,57.28
2022-08-05T06:53:11.244Z,56.44
2022-08-05T06:55:41.993Z,54.78
2022-08-05T06:58:20.196Z,53.69
2022-08-05T07:01:00.293Z,53.57
2022-08-05T07:03:32.405Z,52.95
2022-08-05T07:06:06.137Z,52.54
2022-08-05T07:08:47.296Z,52.43
2022-08-05T07:11:22.172Z,53.45
2022-08-05T07:14:20.553Z,54.18
2022-08-05T07:17:59.113Z,51.90
2022-08-05T07:20:31.212Z,51.73
2022-08-05T07:22:35.119Z,52.09
2022-08-05T07:25:23.655Z,51.90
2022-08-05T07:27:57.161Z,49.29
2022-08-05T07:30:38.725Z,48.59
2022-08-05T07:33:09.938Z,47.66
2022-08-05T08:57:11.541Z,35.40
2022-08-05T08:59:41.671Z,35.74
2022-08-05T09:02:14.722Z,36.14
2022-08-05T09:04:58.250Z,34.96
2022-08-05T09:07:39.826Z,35.50
2022-08-05T09:10:19.079Z,33.80
2022-08-05T09:12:46.063Z,34.56
2022-08-05T09:15:18.186Z,34.96
2022-08-05T09:17:49.783Z,33.83
2022-08-05T09:20:36.354Z,33.87
2022-08-05T09:23:19.057Z,33.35
2022-08-05T09:26:01.420Z,34.09
2022-08-05T09:28:33.553Z,33.66
2022-08-05T09:31:22.732Z,32.90
2022-08-05T09:33:53.142Z,33.19
2022-08-05T09:36:20.613Z,31.99
2022-08-05T09:39:01.109Z,32.22
2022-08-05T09:41:33.174Z,32.82
2022-08-05T09:44:06.083Z,32.74
2022-08-05T09:46:35.077Z,32.02
2022-08-05T09:49:19.523Z,31.44
2022-08-05T09:51:49.924Z,31.74
2022-08-05T09:54:21.464Z,32.19
2022-08-05T09:56:57.494Z,32.50
2022-08-05T09:59:28.425Z,33.40
2022-08-05T10:01:58.533Z,32.98
2022-08-05T10:04:35.034Z,32.78
2022-08-05T10:07:14.133Z,31.69
2022-08-05T10:10:13.854Z,31.71
2022-08-05T10:12:53.021Z,31.20
2022-08-05T10:15:49.369Z,31.58
2022-08-05T10:18:20.370Z,30.74
2022-08-05T10:20:51.112Z,30.95
2022-08-05T10:23:59.235Z,31.75
2022-08-05T10:26:56.477Z,30.00
2022-08-05T10:30:07.024Z,30.28
2022-08-05T10:32:52.721Z,30.15
2022-08-05T10:36:12.024Z,29.35
2022-08-05T10:38:54.299Z,29.80
2022-08-05T10:42:18.941Z,29.97
2022-08-05T10:45:42.054Z,30.16
2022-08-05T10:48:56.501Z,29.40
2022-08-05T10:55:16.136Z,29.58
2022-08-05T10:58:14.931Z,29.69
2022-08-05T11:00:47.177Z,30.11
2022-08-05T11:03:52.323Z,29.68
2022-08-05T11:07:01.474Z,28.36
2022-08-05T11:09:46.189Z,27.82
2022-08-05T11:12:42.426Z,28.29
2022-08-05T11:16:01.217Z,31.02
2022-08-05T11:20:16.683Z,28.71
2022-08-05T11:33:43.815Z,29.58
2022-08-05T11:40:02.980Z,29.22
2022-08-05T11:42:32.120Z,28.44
2022-08-05T11:46:14.553Z,28.13
2022-08-05T11:48:16.170Z,27.94
2022-08-05T11:50:57.902Z,27.80
2022-08-05T11:53:53.312Z,27.57
2022-08-05T12:14:43.237Z,26.56
2022-08-05T12:18:00.763Z,26.89
2022-08-05T12:20:16.702Z,27.59
2022-08-05T12:22:48.382Z,26.42
2022-08-05T12:25:18.865Z,25.47
2022-08-05T12:27:52.987Z,26.10
2022-08-05T12:30:22.606Z,26.38
2022-08-05T12:33:07.165Z,27.33
2022-08-05T12:35:45.842Z,25.83
2022-08-05T12:38:15.249Z,26.08
2022-08-05T12:40:42.227Z,25.89
2022-08-05T12:43:11.762Z,25.62
2022-08-05T12:45:54.090Z,25.19
2022-08-05T12:48:32.188Z,25.60
2022-08-05T12:52:13.810Z,25.18
2022-08-05T12:54:33.028Z,26.00
2022-08-05T12:57:02.114Z,25.73
2022-08-05T13:00:09.057Z,26.06
2022-08-05T13:02:30.683Z,25.93
2022-08-05T13:04:57.755Z,25.39
2022-08-05T13:07:55.948Z,25.47
2022-08-05T13:10:14.682Z,25.87
2022-08-05T13:12:57.175Z,25.93
2022-08-05T13:15:41.129Z,25.51
2022-08-05T13:18:19.741Z,26.54
2022-08-05T13:20:47.634Z,25.24
2022-08-05T13:23:17.991Z,25.55
2022-08-05T13:25:51.805Z,25.00
2022-08-05T13:28:27.150Z,25.44
2022-08-05T13:30:54.091Z,25.17
2022-08-05T13:34:21.230Z,24.71
2022-08-05T13:36:09.167Z,24.62
2022-08-05T13:38:42.384Z,24.39
2022-08-05T13:41:11.496Z,24.94
2022-08-05T13:43:45.890Z,24.76
2022-08-05T13:46:43.734Z,24.51
2022-08-05T13:49:12.992Z,24.33
2022-08-05T13:51:46.318Z,25.82
2022-08-05T13:54:15.467Z,25.44
2022-08-05T13:56:45.415Z,26.08
2022-08-05T13:59:24.134Z,25.19
2022-08-05T14:01:59.097Z,25.29
2022-08-05T14:04:55.543Z,25.33
2022-08-05T14:07:56.270Z,25.44
2022-08-05T14:10:13.512Z,24.66
2022-08-05T14:12:42.618Z,24.67
2022-08-05T14:16:05.347Z,24.97
2022-08-05T14:17:59.657Z,25.03
2022-08-05T14:20:28.334Z,25.85
2022-08-05T14:22:55.870Z,25.65
2022-08-05T14:25:28.239Z,25.23
2022-08-05T14:27:58.386Z,25.45
2022-08-05T14:30:26.606Z,25.84
2022-08-05T14:32:54.890Z,25.60
2022-08-05T14:35:23.757Z,25.05
2022-08-05T14:38:04.532Z,24.94
2022-08-05T14:40:31.362Z,25.23
2022-08-05T14:42:58.436Z,25.81
2022-08-05T14:45:25.867Z,26.00
2022-08-05T14:48:05.084Z,26.07
2022-08-05T14:50:33.351Z,25.55
2022-08-05T14:53:07.122Z,26.18
2022-08-05T14:55:39.117Z,27.32
2022-08-05T14:58:11.279Z,26.49
2022-08-05T15:00:58.388Z,26.95
2022-08-05T15:03:33.251Z,27.43
2022-08-05T15:06:07.858Z,26.70
2022-08-05T15:09:01.541Z,27.28
2022-08-05T15:11:52.564Z,27.24
2022-08-05T15:14:34.871Z,26.69
2022-08-05T15:17:09.831Z,25.62
2022-08-05T15:19:56.252Z,25.24
2022-08-05T15:22:27.454Z,25.38
2022-08-05T15:24:55.986Z,26.02
2022-08-05T15:27:25.525Z,25.61
2022-08-05T15:29:56.680Z,23.29
2022-08-05T15:32:26.930Z,21.10
2022-08-05T15:34:56.201Z,20.44
2022-08-05T15:38:32.282Z,19.88
2022-08-05T15:41:03.538Z,19.10
2022-08-05T15:43:09.283Z,19.64
2022-08-05T15:45:45.710Z,20.14
2022-08-05T15:48:14.423Z,20.78
2022-08-05T15:50:41.600Z,19.93
2022-08-05T15:53:12.775Z,19.24
2022-08-05T15:56:02.706Z,19.59
2022-08-05T15:58:28.671Z,19.51
2022-08-05T16:01:11.672Z,19.90
2022-08-05T16:03:42.887Z,19.40
2022-08-05T16:06:11.476Z,20.18
2022-08-05T16:08:38.739Z,19.10
2022-08-05T16:11:07.933Z,18.66
2022-08-05T16:13:35.389Z,20.18
2022-08-05T16:16:03.370Z,20.39
2022-08-05T16:18:33.129Z,20.21
2022-08-05T16:21:04.127Z,20.31
2022-08-05T16:23:32.840Z,19.97
2022-08-05T16:26:26.267Z,18.51
2022-08-05T16:28:54.419Z,18.15
2022-08-05T16:31:21.655Z,17.80
2022-08-05T16:33:48.820Z,17.63
2022-08-05T16:36:20.504Z,18.75
2022-08-05T16:38:54.477Z,18.14
2022-08-05T16:42:14.448Z,20.86
2022-08-05T16:44:09.710Z,19.14
2022-08-05T16:46:38.698Z,18.39
2022-08-05T16:49:09.934Z,18.13
2022-08-05T16:51:50.242Z,18.64
2022-08-05T16:54:25.745Z,18.48
2022-08-05T16:56:55.747Z,18.21
2022-08-05T16:59:22.993Z,18.82
2022-08-05T17:01:52.728Z,18.55
2022-08-05T17:04:22.165Z,19.05
2022-08-05T17:06:53.591Z,19.19
2022-08-05T17:09:21.017Z,19.03
2022-08-05T17:11:52.367Z,19.17
2022-08-05T17:14:22.505Z,18.44
2022-08-05T17:17:02.683Z,19.11
2022-08-05T17:19:29.588Z,18.88
2022-08-05T17:21:57.654Z,19.70
2022-08-05T17:24:33.963Z,19.38
2022-08-05T17:27:06.011Z,19.78
2022-08-05T17:29:41.230Z,22.02
2022-08-05T17:32:11.498Z,24.48
2022-08-05T17:34:43.654Z,25.87
2022-08-05T17:37:27.336Z,26.84
2022-08-05T17:40:00.006Z,27.96
2022-08-05T17:42:31.991Z,28.88
2022-08-05T17:45:17.863Z,29.30
2022-08-05T17:47:53.527Z,30.27
2022-08-05T17:50:28.910Z,31.21
2022-08-05T17:53:01.498Z,30.97
2022-08-05T17:55:34.540Z,31.38
2022-08-05T17:58:12.216Z,32.19
2022-08-05T18:00:44.912Z,32.61
2022-08-05T18:03:24.150Z,32.09
2022-08-05T18:06:04.742Z,32.62
2022-08-05T18:08:34.853Z,32.55
2022-08-05T18:11:03.205Z,33.11
2022-08-05T18:13:36.937Z,33.44
2022-08-05T18:16:14.628Z,33.75
2022-08-05T18:19:04.850Z,34.21
2022-08-05T18:22:09.470Z,34.72
2022-08-05T18:24:36.941Z,33.91
2022-08-05T18:27:12.685Z,33.97
2022-08-05T18:29:53.601Z,33.58
2022-08-05T18:32:28.284Z,33.59
2022-08-05T18:35:14.096Z,33.31
2022-08-05T18:37:42.299Z,33.59
2022-08-05T18:40:34.095Z,33.78
2022-08-05T18:43:17.083Z,34.27
2022-08-05T18:45:55.196Z,33.50
2022-08-05T18:48:33.969Z,34.03
2022-08-05T18:52:05.715Z,35.40
2022-08-05T18:54:12.904Z,35.13
2022-08-05T18:56:40.107Z,35.05
2022-08-05T18:59:44.228Z,35.54
2022-08-05T19:01:58.179Z,35.56
2022-08-05T19:04:25.989Z,35.50
2022-08-05T19:06:53.509Z,36.03
2022-08-05T19:09:21.314Z,36.22
2022-08-05T19:12:00.249Z,36.45
2022-08-05T19:14:59.328Z,36.73
2022-08-05T19:17:16.483Z,36.74
2022-08-05T19:19:46.976Z,37.18
2022-08-05T19:22:17.068Z,37.62
2022-08-05T19:24:56.127Z,38.31
2022-08-05T19:27:27.815Z,38.26
2022-08-05T19:29:57.889Z,38.60
2022-08-05T19:32:26.159Z,38.71
2022-08-05T19:34:55.799Z,38.99
2022-08-05T19:37:30.049Z,39.39
2022-08-05T19:40:10.930Z,39.41
2022-08-05T19:42:38.779Z,39.56
2022-08-05T19:45:07.275Z,39.79
2022-08-05T19:47:37.667Z,40.14
2022-08-05T19:50:06.190Z,40.30
2022-08-05T19:52:34.951Z,39.39
2022-08-05T19:55:06.586Z,39.48
2022-08-05T19:57:47.373Z,39.04
2022-08-05T20:00:21.240Z,38.92
2022-08-05T20:02:48.102Z,39.45
2022-08-05T20:05:16.624Z,39.46
2022-08-05T20:07:56.336Z,39.77
2022-08-05T20:10:25.957Z,39.75
2022-08-05T20:12:52.969Z,39.83
2022-08-05T20:15:48.529Z,40.27
2022-08-05T20:18:10.906Z,40.54
2022-08-05T20:20:56.478Z,40.34
2022-08-05T20:23:40.033Z,40.71
2022-08-05T20:26:15.280Z,40.82
2022-08-05T20:28:44.881Z,41.35
2022-08-05T20:31:11.784Z,41.57
2022-08-05T20:33:38.721Z,40.85
2022-08-05T20:36:10.226Z,41.13
2022-08-05T20:38:53.152Z,41.58
2022-08-05T20:41:23.895Z,41.76
2022-08-05T20:44:00.374Z,41.54
2022-08-05T20:46:33.633Z,42.06
2022-08-05T20:49:00.481Z,42.17
2022-08-05T20:51:29.906Z,41.94
2022-08-05T20:54:01.182Z,42.11
2022-08-05T20:56:31.867Z,42.62
2022-08-05T20:59:11.221Z,42.71
2022-08-05T21:01:46.968Z,43.24
2022-08-05T21:04:14.314Z,44.25
2022-08-05T21:06:45.824Z,45.56
2022-08-05T21:09:14.302Z,46.72
2022-08-05T21:12:06.988Z,47.02
2022-08-05T21:14:34.840Z,47.45
2022-08-05T21:17:05.905Z,47.96
2022-08-05T21:19:46.611Z,48.01
2022-08-05T21:22:18.562Z,48.66
2022-08-05T21:24:51.634Z,48.67
2022-08-05T21:27:20.556Z,49.18
2022-08-05T21:29:51.935Z,49.18
2022-08-05T21:32:20.949Z,49.93
2022-08-05T21:35:09.134Z,49.95
2022-08-05T21:37:41.423Z,50.20
2022-08-05T21:40:13.158Z,50.16
2022-08-05T21:42:44.804Z,49.23
2022-08-05T21:45:13.716Z,49.39
2022-08-05T21:47:57.111Z,49.47
2022-08-05T21:50:27.615Z,49.42
2022-08-05T21:52:59.032Z,49.19
2022-08-05T21:55:43.077Z,48.54
2022-08-05T21:58:19.536Z,48.16
2022-08-05T22:00:51.470Z,47.29
2022-08-05T22:03:20.536Z,46.52
2022-08-05T22:06:06.489Z,47.00
2022-08-05T22:08:35.309Z,46.58
2022-08-05T22:11:02.251Z,46.65
2022-08-05T22:14:34.175Z,46.56
2022-08-05T22:16:41.477Z,47.13
2022-08-05T22:19:56.039Z,47.13
2022-08-05T22:21:54.668Z,47.72
2022-08-05T22:24:52.074Z,48.20
2022-08-05T22:28:09.704Z,48.27
2022-08-05T22:30:32.295Z,48.85
2022-08-05T22:33:04.058Z,49.32
2022-08-05T22:35:48.032Z,49.75
2022-08-05T22:38:16.872Z,49.91
2022-08-05T22:40:50.087Z,50.02
2022-08-05T22:43:37.432Z,49.91
2022-08-05T22:46:13.434Z,49.55
2022-08-05T22:48:50.042Z,50.44
2022-08-05T22:51:23.243Z,51.13
2022-08-05T22:54:04.099Z,51.03
2022-08-05T22:56:31.398Z,52.08
2022-08-05T22:59:04.156Z,51.77
2022-08-05T23:02:04.123Z,51.30
2022-08-05T23:04:32.378Z,51.50
2022-08-05T23:06:59.323Z,51.53
2022-08-05T23:09:28.043Z,51.56
2022-08-05T23:12:13.250Z,51.73
2022-08-05T23:14:40.151Z,52.35
2022-08-05T23:17:34.613Z,52.49
2022-08-05T23:20:06.404Z,52.75
2022-08-05T23:22:43.840Z,52.15
2022-08-05T23:25:17.080Z,51.51
2022-08-05T23:30:53.322Z,51.85
2022-08-05T23:33:25.811Z,52.51
2022-08-05T23:36:06.269Z,52.77
2022-08-05T23:38:36.998Z,53.65
2022-08-05T23:41:03.978Z,53.93
2022-08-05T23:44:02.980Z,55.25
2022-08-05T23:46:20.593Z,56.43
2022-08-05T23:49:00.919Z,56.63
2022-08-05T23:51:52.728Z,56.54
2022-08-05T23:54:25.969Z,55.33
2022-08-05T23:56:58.296Z,54.90
